Tuesday, October 16, 2018, 10:50 PM GMT
Back to Local

CWNC, Cobourg, Ont.

Location: , , Canada Lat: 43.95
Local Time: 10:50 PM GMT (22:50 GMT) Lon: -78.167
Time Zone: GMT Elev: 255 ft

Show me the last for .
Show Coded

Time T Td Feel RH Dir Speed Gust Alt SLP Vis Weather Sky Remarks
2018-10-16 22:00 47 38 44 70 270° 6 - - 29.91 0 None
2018-10-16 21:00 46 36 44 66 270° 6 - - 29.93 0 None
2018-10-16 20:00 46 35 42 64 270° 7 - - 29.96 0 None
2018-10-16 19:00 45 36 37 70 260° 14 20 - 29.98 0 Peak wind: 23 mph (20 kts) from 270° at 08 min
2018-10-16 18:00 45 36 36 69 250° 18 25 - 30.01 0 Peak wind: 25 mph (22 kts) from 250° at 55 min
2018-10-16 17:00 45 35 36 67 260° 15 22 - 30.05 0 Peak wind: 27 mph (24 kts) from 260° at 10 min
2018-10-16 16:00 44 34 35 67 260° 20 26 - 30.07 0 Peak wind: 26 mph (23 kts) from 260° at 55 min
2018-10-16 15:00 42 35 32 75 260° 16 23 - 30.09 0 Peak wind: 26 mph (23 kts) from 260° at 40 min
2018-10-16 14:00 43 36 34 74 260° 17 23 - 30.11 0 Peak wind: 23 mph (20 kts) from 290° at 27 min
2018-10-16 13:00 42 35 37 74 290° 8 - - 30.11 0 None
2018-10-16 12:00 34 29 31 82 360° 3 - - 30.10 0 None
2018-10-16 11:00 37 30 33 77 300° 5 - - 30.09 0 None
2018-10-16 10:00 38 30 34 71 300° 5 - - 30.09 0 None
2018-10-16 09:00 39 30 34 70 290° 7 - - 30.07 0 None
2018-10-16 08:00 40 30 34 68 290° 9 - - 30.06 0 Peak wind: 19 mph (17 kts) from 280° at 46 min
2018-10-16 07:00 40 31 31 68 280° 12 18 - 30.05 0 Peak wind: 19 mph (17 kts) from 280° at 55 min
2018-10-16 06:00 40 30 35 65 300° 8 - - 30.04 0 Peak wind: 20 mph (18 kts) from 260° at 02 min
2018-10-16 05:00 42 31 33 64 280° 12 20 - 30.03 0 Peak wind: 19 mph (17 kts) from 290° at 58 min
2018-10-16 04:00 41 29 35 62 290° 9 - - 30.03 0 Peak wind: 19 mph (17 kts) from 260° at 43 min
2018-10-16 03:00 42 29 33 59 290° 10 20 - 30.01 0 Peak wind: 21 mph (19 kts) from 270° at 24 min
2018-10-16 02:00 42 28 34 57 290° 10 21 - 29.99 0 Peak wind: 31 mph (27 kts) from 270° at 11 min
2018-10-16 01:00 45 30 35 56 290° 15 29 - 29.93 0 Peak wind: 28 mph (25 kts) from 280° at 52 min
2018-10-16 00:00 47 36 39 65 290° 12 23 - 29.88 0 Peak wind: 24 mph (21 kts) from 280° at 16 min
2018-10-15 23:00 49 38 42 65 290° 12 22 - 29.84 0 Peak wind: 23 mph (20 kts) from 310° at 15 min

Support USWX by starting your Amazon purchase here.